createdAt,value
2019-02-19T00:00:50.676Z,100948.58
2019-02-19T00:10:56.795Z,100934.31
2019-02-19T00:21:03.082Z,100920.70
2019-02-19T00:31:08.983Z,100893.12
2019-02-19T00:41:15.174Z,100878.84
2019-02-19T00:51:22.346Z,100875.32
2019-02-19T01:01:29.384Z,100867.29
2019-02-19T01:11:35.191Z,100853.39
2019-02-19T01:21:41.316Z,100833.26
2019-02-19T01:31:49.569Z,100836.16
2019-02-19T01:41:56.099Z,100833.41
2019-02-19T01:52:01.995Z,100808.08
2019-02-19T02:02:07.793Z,100790.38
2019-02-19T02:12:13.660Z,100775.48
2019-02-19T02:22:19.608Z,100763.36
2019-02-19T02:32:26.018Z,100751.85
2019-02-19T02:42:32.194Z,100745.88
2019-02-19T02:52:38.138Z,100723.30
2019-02-19T03:02:43.901Z,100720.86
2019-02-19T03:12:49.752Z,100719.74
2019-02-19T03:22:55.670Z,100716.53
2019-02-19T03:33:01.886Z,100710.55
2019-02-19T03:43:08.082Z,100705.77
2019-02-19T03:53:13.879Z,100701.92
2019-02-19T04:03:19.790Z,100702.02
2019-02-19T04:13:25.650Z,100690.77
2019-02-19T04:23:31.811Z,100685.38
2019-02-19T04:33:37.719Z,100686.95
2019-02-19T04:43:43.625Z,100675.35
2019-02-19T04:53:49.951Z,100669.25
2019-02-19T05:03:55.950Z,100673.19
2019-02-19T05:14:01.854Z,100674.02
2019-02-19T05:24:07.657Z,100671.61
2019-02-19T05:34:14.881Z,100676.00
2019-02-19T05:44:21.197Z,100678.42
2019-02-19T05:54:27.322Z,100689.64
2019-02-19T06:04:33.622Z,100670.28
2019-02-19T06:14:39.744Z,100670.19
2019-02-19T06:24:45.540Z,100679.41
2019-02-19T06:34:51.348Z,100689.17
2019-02-19T06:44:58.202Z,100687.69
2019-02-19T06:55:04.589Z,100694.73
2019-02-19T07:05:12.011Z,100704.69
2019-02-19T07:15:17.729Z,100707.27
2019-02-19T07:25:23.436Z,100722.59
2019-02-19T07:35:29.438Z,100717.91
2019-02-19T07:45:35.236Z,100726.38
2019-02-19T07:55:40.948Z,100738.76
2019-02-19T08:05:46.959Z,100738.03
2019-02-19T08:15:53.895Z,100741.65
2019-02-19T08:25:59.978Z,100734.67
2019-02-19T08:36:06.054Z,100740.78
2019-02-19T08:46:11.989Z,100763.69
2019-02-19T08:56:17.805Z,100787.54
2019-02-19T09:06:23.942Z,100799.95
2019-02-19T09:16:30.232Z,100799.95
2019-02-19T09:26:39.020Z,100818.61
2019-02-19T09:36:45.640Z,100826.05
2019-02-19T09:46:51.774Z,100834.98
2019-02-19T09:56:57.637Z,100834.98
2019-02-19T10:07:03.554Z,100846.11
2019-02-19T10:17:09.270Z,100857.16
2019-02-19T10:27:14.966Z,100878.45
2019-02-19T10:37:21.024Z,100867.72
2019-02-19T10:47:26.919Z,100867.72
2019-02-19T10:57:32.771Z,100878.77
2019-02-19T11:07:38.942Z,100865.11
2019-02-19T11:17:44.612Z,100865.11
2019-02-19T11:27:52.277Z,100874.09
2019-02-19T11:37:58.530Z,100871.47
2019-02-19T11:48:04.827Z,100868.86
2019-02-19T11:58:10.761Z,100868.86
2019-02-19T12:08:17.490Z,100868.45
2019-02-19T12:18:23.194Z,100882.91
2019-02-19T12:28:29.111Z,100871.94
2019-02-19T12:38:34.898Z,100873.52
2019-02-19T12:48:40.898Z,100869.33
2019-02-19T12:58:46.887Z,100856.11
2019-02-19T13:08:52.594Z,100837.03
2019-02-19T13:19:03.489Z,100849.36
2019-02-19T13:29:05.963Z,100848.20
2019-02-19T13:39:11.758Z,100852.16
2019-02-19T13:49:17.758Z,100838.68
2019-02-19T13:59:23.981Z,100864.46
2019-02-19T14:09:30.105Z,100877.39
2019-02-19T14:19:43.685Z,100865.62
2019-02-19T14:29:57.051Z,100872.61
2019-02-19T14:40:21.070Z,100880.84
2019-02-19T14:50:44.498Z,100845.46
2019-02-19T15:01:00.643Z,100843.45
2019-02-19T15:11:07.882Z,100841.53
2019-02-19T15:21:33.896Z,100838.53
2019-02-19T15:31:41.216Z,100827.75
2019-02-19T15:41:48.752Z,100819.74
2019-02-19T15:51:56.294Z,100822.02
2019-02-19T16:02:06.919Z,100829.72
2019-02-19T16:12:17.085Z,100822.20
2019-02-19T16:22:33.831Z,100814.41
2019-02-19T16:32:56.968Z,100821.53
2019-02-19T16:43:04.283Z,100821.33
2019-02-19T16:53:17.183Z,100824.98
2019-02-19T17:03:24.733Z,100824.98
2019-02-19T17:13:32.252Z,100833.48
2019-02-19T17:23:55.819Z,100833.48
2019-02-19T17:34:12.051Z,100840.47
2019-02-19T17:44:19.395Z,100838.52
2019-02-19T17:54:26.618Z,100870.39
2019-02-19T18:04:34.018Z,100866.94
2019-02-19T18:14:41.315Z,100868.55
2019-02-19T18:24:46.989Z,100878.92
2019-02-19T18:34:53.914Z,100890.10
2019-02-19T18:44:59.808Z,100895.56
2019-02-19T18:55:06.918Z,100911.37
2019-02-19T19:05:13.266Z,100913.11
2019-02-19T19:15:19.512Z,100914.22
2019-02-19T19:25:25.413Z,100909.59
2019-02-19T19:35:31.598Z,100931.74
2019-02-19T19:45:37.407Z,100937.39
2019-02-19T19:55:44.985Z,100940.28
2019-02-19T20:05:50.795Z,100955.29
2019-02-19T20:15:57.157Z,100955.70
2019-02-19T20:26:03.232Z,100952.91
2019-02-19T20:36:09.274Z,100956.46
2019-02-19T20:46:15.536Z,100979.56
2019-02-19T20:56:21.633Z,100980.83
2019-02-19T21:06:27.611Z,100986.70
2019-02-19T21:16:34.373Z,100983.91
2019-02-19T21:26:40.798Z,100977.70
2019-02-19T21:36:49.954Z,100983.88
2019-02-19T21:46:57.475Z,100995.76
2019-02-19T21:57:03.333Z,100997.54
2019-02-19T22:07:10.409Z,101001.72
2019-02-19T22:17:16.237Z,101019.03
2019-02-19T22:27:22.112Z,101019.43
2019-02-19T22:37:28.098Z,101027.17
2019-02-19T22:47:35.572Z,101032.80
2019-02-19T22:57:41.480Z,101033.00
2019-02-19T23:07:54.440Z,101048.94
2019-02-19T23:18:01.149Z,101055.84
2019-02-19T23:28:07.330Z,101051.25
2019-02-19T23:38:13.282Z,101064.23
2019-02-19T23:48:20.954Z,101073.30
2019-02-19T23:58:26.736Z,101071.91
